createdAt,value
2022-08-14T00:00:22.633Z,75.40
2022-08-14T00:00:54.334Z,75.73
2022-08-14T00:01:26.208Z,75.84
2022-08-14T00:02:05.197Z,75.91
2022-08-14T00:02:36.870Z,75.82
2022-08-14T00:03:08.468Z,75.92
2022-08-14T00:03:40.677Z,75.94
2022-08-14T00:04:31.871Z,76.13
2022-08-14T00:05:05.876Z,76.14
2022-08-14T00:05:37.457Z,76.15
2022-08-14T00:06:25.500Z,76.14
2022-08-14T00:07:00.751Z,76.16
2022-08-14T00:07:32.654Z,76.44
2022-08-14T00:08:05.675Z,76.35
2022-08-14T00:08:46.195Z,76.27
2022-08-14T00:09:17.748Z,76.16
2022-08-14T00:10:02.598Z,76.31
2022-08-14T00:10:51.163Z,76.18
2022-08-14T00:11:24.607Z,76.22
2022-08-14T00:11:56.694Z,76.18
2022-08-14T00:12:33.447Z,76.05
2022-08-14T00:13:21.849Z,75.84
2022-08-14T00:13:53.501Z,75.99
2022-08-14T00:14:26.571Z,76.25
2022-08-14T00:14:58.281Z,76.11
2022-08-14T00:15:43.341Z,76.24
2022-08-14T00:16:41.237Z,76.28
2022-08-14T00:17:07.634Z,76.67
2022-08-14T00:17:48.053Z,76.77
2022-08-14T00:18:30.652Z,76.67
2022-08-14T00:19:21.290Z,77.06
2022-08-14T00:19:53.203Z,77.18
2022-08-14T00:20:30.738Z,77.17
2022-08-14T00:21:11.151Z,77.25
2022-08-14T00:21:43.254Z,77.52
2022-08-14T00:22:44.412Z,77.78
2022-08-14T00:23:16.569Z,77.65
2022-08-14T00:23:53.861Z,77.42
2022-08-14T00:24:29.121Z,77.26
2022-08-14T00:25:02.673Z,77.37
2022-08-14T00:25:42.350Z,77.60
2022-08-14T00:26:21.610Z,77.53
2022-08-14T00:26:54.812Z,77.81
2022-08-14T00:27:26.531Z,77.62
2022-08-14T00:28:02.771Z,77.70
2022-08-14T00:28:37.053Z,77.59
2022-08-14T00:29:08.747Z,77.80
2022-08-14T00:29:43.015Z,77.69
2022-08-14T00:30:17.455Z,77.54
2022-08-14T00:30:50.725Z,77.59
2022-08-14T00:31:35.166Z,77.60
2022-08-14T00:32:52.129Z,77.40
2022-08-14T00:33:06.597Z,77.69
2022-08-14T00:33:50.646Z,77.52
2022-08-14T00:34:37.021Z,77.53
2022-08-14T00:35:16.457Z,77.60
2022-08-14T00:36:34.960Z,77.45
2022-08-14T00:36:49.051Z,77.20
2022-08-14T00:37:21.255Z,77.26
2022-08-14T00:37:53.093Z,77.37
2022-08-14T00:38:24.721Z,77.55
2022-08-14T00:38:58.934Z,77.70
2022-08-14T00:39:32.869Z,77.80
2022-08-14T00:40:27.428Z,77.60
2022-08-14T00:40:57.800Z,77.40
2022-08-14T00:41:33.479Z,77.38
2022-08-14T00:42:05.901Z,77.38
2022-08-14T00:42:55.057Z,77.28
2022-08-14T00:43:32.362Z,77.41
2022-08-14T00:44:04.348Z,77.45
2022-08-14T00:44:37.300Z,77.59
2022-08-14T00:45:15.861Z,77.45
2022-08-14T00:45:51.664Z,77.40
2022-08-14T00:46:32.801Z,77.51
2022-08-14T00:47:10.676Z,77.45
2022-08-14T00:47:45.062Z,77.25
2022-08-14T00:48:34.861Z,77.15
2022-08-14T00:49:11.468Z,77.27
2022-08-14T00:49:46.019Z,77.09
2022-08-14T00:50:22.016Z,77.02
2022-08-14T00:50:55.042Z,76.95
2022-08-14T00:51:38.090Z,76.83
2022-08-14T00:52:18.272Z,76.83
2022-08-14T00:52:52.603Z,77.08
2022-08-14T00:53:25.520Z,77.12
2022-08-14T00:53:57.393Z,77.26
2022-08-14T00:54:29.280Z,77.53
2022-08-14T00:55:02.770Z,77.53
2022-08-14T00:55:36.280Z,77.60
2022-08-14T00:56:10.939Z,77.77
2022-08-14T00:56:47.072Z,77.98
2022-08-14T00:57:21.314Z,77.87
2022-08-14T00:58:13.061Z,77.76
2022-08-14T00:58:48.532Z,77.56
2022-08-14T00:59:20.421Z,77.51
2022-08-14T00:59:52.535Z,77.43
2022-08-14T01:00:37.543Z,77.61
2022-08-14T01:01:19.145Z,77.57
2022-08-14T01:01:51.542Z,77.44
2022-08-14T01:02:28.189Z,77.49
2022-08-14T01:03:05.480Z,78.57
2022-08-14T01:03:39.753Z,78.60
2022-08-14T01:04:38.188Z,78.68
2022-08-14T01:05:07.700Z,78.41
2022-08-14T01:05:50.662Z,78.32
2022-08-14T01:06:25.728Z,78.25
2022-08-14T01:07:07.465Z,78.24
2022-08-14T01:07:50.314Z,78.59
2022-08-14T01:08:57.806Z,78.73
2022-08-14T01:09:24.141Z,79.17
2022-08-14T01:10:05.215Z,79.06
2022-08-14T01:10:53.141Z,79.18
2022-08-14T01:11:25.338Z,79.26
2022-08-14T01:12:05.238Z,79.16
2022-08-14T01:12:40.371Z,79.69
2022-08-14T01:13:17.021Z,79.94
2022-08-14T01:14:00.745Z,79.84
2022-08-14T01:14:33.084Z,79.94
2022-08-14T01:15:09.400Z,80.01
2022-08-14T01:15:58.014Z,79.86
2022-08-14T01:16:32.832Z,79.48
2022-08-14T01:17:04.937Z,79.78
2022-08-14T01:17:59.212Z,79.62
2022-08-14T01:19:00.981Z,79.63
2022-08-14T01:19:53.151Z,79.86
2022-08-14T01:20:44.644Z,79.71
2022-08-14T01:21:17.502Z,79.38
2022-08-14T01:21:53.510Z,79.24
2022-08-14T01:22:26.622Z,79.86
2022-08-14T01:22:58.707Z,79.91
2022-08-14T01:23:41.719Z,79.74
2022-08-14T01:24:24.642Z,79.71
2022-08-14T01:25:04.092Z,79.61
2022-08-14T01:25:37.532Z,79.80
2022-08-14T01:26:12.214Z,79.76
2022-08-14T01:26:55.347Z,79.75
2022-08-14T01:27:28.633Z,79.83
2022-08-14T01:28:01.420Z,79.77
2022-08-14T01:28:54.307Z,79.89
2022-08-14T01:29:59.201Z,79.94
2022-08-14T01:30:36.555Z,79.80
2022-08-14T01:31:17.365Z,80.07
2022-08-14T01:31:52.463Z,80.20
2022-08-14T01:32:24.171Z,80.48
2022-08-14T01:32:56.092Z,80.56
2022-08-14T01:33:30.184Z,80.51
2022-08-14T01:35:18.068Z,80.47
2022-08-14T01:35:20.998Z,80.51
2022-08-14T01:36:04.382Z,80.75
2022-08-14T01:36:39.783Z,80.62
2022-08-14T01:37:11.434Z,80.69
2022-08-14T01:37:54.886Z,80.82
2022-08-14T01:38:37.701Z,80.91
2022-08-14T01:39:18.180Z,81.00
2022-08-14T01:39:51.476Z,80.74
2022-08-14T01:40:36.765Z,80.52
2022-08-14T01:41:17.780Z,80.45
2022-08-14T01:42:00.960Z,80.43
2022-08-14T01:42:36.165Z,80.51
2022-08-14T01:43:18.653Z,80.36
2022-08-14T01:44:01.019Z,81.00
2022-08-14T01:44:34.527Z,80.84
2022-08-14T01:45:12.735Z,80.92
2022-08-14T01:46:05.826Z,81.11
2022-08-14T01:46:41.256Z,81.16
2022-08-14T01:47:21.365Z,81.06
2022-08-14T01:48:03.022Z,81.38
2022-08-14T01:48:37.057Z,81.31
2022-08-14T01:49:12.420Z,81.24
2022-08-14T01:49:59.005Z,81.23
2022-08-14T01:50:33.679Z,81.35
2022-08-14T01:51:20.098Z,81.25
2022-08-14T01:51:56.404Z,81.38
2022-08-14T01:52:57.747Z,81.22
2022-08-14T01:53:23.821Z,81.39
2022-08-14T01:54:09.369Z,81.46
2022-08-14T01:54:41.196Z,81.24
2022-08-14T01:55:15.649Z,81.14
2022-08-14T01:55:51.526Z,80.94
2022-08-14T01:56:39.137Z,80.97
2022-08-14T01:57:11.624Z,81.06
2022-08-14T01:58:00.261Z,80.84
2022-08-14T01:58:38.524Z,81.12
2022-08-14T01:59:38.139Z,81.18
2022-08-14T02:01:06.142Z,81.63
2022-08-14T02:01:41.950Z,81.43
2022-08-14T02:02:23.232Z,81.61
2022-08-14T02:02:56.233Z,81.69
2022-08-14T02:03:31.238Z,81.70
2022-08-14T02:04:04.856Z,81.96
2022-08-14T02:04:57.209Z,82.17
2022-08-14T02:05:31.075Z,82.16
2022-08-14T02:06:32.261Z,82.13
2022-08-14T02:06:59.902Z,82.34
2022-08-14T02:07:44.845Z,82.20
2022-08-14T02:08:35.282Z,82.21
2022-08-14T02:09:18.916Z,82.13
2022-08-14T02:09:55.699Z,81.94
2022-08-14T02:10:31.697Z,81.97
2022-08-14T02:11:17.181Z,82.27
2022-08-14T02:11:54.367Z,82.26
2022-08-14T02:12:29.440Z,82.23
2022-08-14T02:13:08.122Z,82.24
2022-08-14T02:13:40.477Z,81.95
2022-08-14T02:14:14.883Z,81.74
2022-08-14T02:15:05.234Z,81.50
2022-08-14T02:15:40.800Z,81.24
2022-08-14T02:16:21.844Z,81.02
2022-08-14T02:16:54.972Z,80.69
2022-08-14T02:17:27.590Z,80.89
2022-08-14T02:18:01.537Z,80.85
2022-08-14T02:18:34.088Z,80.95
2022-08-14T02:19:09.919Z,81.12
2022-08-14T02:19:41.493Z,81.40
2022-08-14T02:20:15.041Z,81.31
2022-08-14T02:20:51.615Z,81.35
2022-08-14T02:21:23.756Z,81.31
2022-08-14T02:22:03.329Z,81.37
2022-08-14T02:22:35.510Z,81.29
2022-08-14T02:23:28.841Z,81.61
2022-08-14T02:24:05.747Z,82.02
2022-08-14T02:24:45.338Z,82.17
2022-08-14T02:25:19.721Z,81.85
2022-08-14T02:25:54.388Z,81.69
2022-08-14T02:26:30.709Z,81.72
2022-08-14T02:28:23.365Z,81.80
2022-08-14T02:28:23.805Z,81.69
2022-08-14T02:28:57.976Z,82.04
2022-08-14T02:29:59.396Z,81.87
2022-08-14T02:30:27.007Z,82.09
2022-08-14T02:31:03.078Z,82.29
2022-08-14T02:31:43.662Z,82.24
2022-08-14T02:32:30.031Z,82.04
2022-08-14T02:33:07.624Z,82.21
2022-08-14T02:33:42.793Z,82.39
2022-08-14T02:34:36.299Z,82.95
2022-08-14T02:35:17.976Z,82.66
2022-08-14T02:35:53.305Z,82.48
2022-08-14T02:37:03.695Z,82.41
2022-08-14T02:37:22.145Z,82.91
2022-08-14T02:37:53.722Z,82.64
2022-08-14T02:38:29.363Z,82.77
2022-08-14T02:39:02.169Z,82.71
2022-08-14T02:39:37.289Z,82.68
2022-08-14T02:40:09.409Z,82.73
2022-08-14T02:40:40.971Z,82.77
2022-08-14T02:41:17.482Z,82.69
2022-08-14T02:41:57.944Z,82.68
2022-08-14T02:42:37.330Z,82.76
2022-08-14T02:43:09.247Z,82.79
2022-08-14T02:43:46.165Z,83.30
2022-08-14T02:44:29.851Z,83.02
2022-08-14T02:45:01.657Z,82.85
2022-08-14T02:45:38.191Z,82.98
2022-08-14T02:46:20.742Z,82.86
2022-08-14T02:47:01.131Z,82.74
2022-08-14T02:47:34.161Z,82.62
2022-08-14T02:49:01.842Z,83.12
2022-08-14T02:49:06.362Z,83.30
2022-08-14T02:49:38.999Z,83.37
2022-08-14T02:50:17.595Z,83.25
2022-08-14T02:50:51.420Z,83.02
2022-08-14T02:51:23.656Z,82.90
2022-08-14T02:52:04.141Z,82.80
2022-08-14T02:53:02.838Z,82.70
2022-08-14T02:53:35.172Z,82.68
2022-08-14T02:54:10.139Z,82.80
2022-08-14T02:54:45.839Z,82.75
2022-08-14T02:55:20.400Z,82.70
2022-08-14T02:55:52.444Z,82.62
2022-08-14T02:56:30.465Z,82.57
2022-08-14T02:57:39.685Z,82.80
2022-08-14T02:58:09.744Z,82.78
2022-08-14T02:58:55.663Z,82.65
2022-08-14T02:59:33.490Z,82.45
2022-08-14T03:00:06.631Z,82.62
2022-08-14T03:00:42.751Z,82.64
2022-08-14T03:01:19.053Z,82.63
2022-08-14T03:01:54.890Z,82.89
2022-08-14T03:02:48.686Z,82.53
2022-08-14T03:03:20.232Z,82.51
2022-08-14T03:03:52.009Z,82.66
2022-08-14T03:04:25.252Z,82.57
2022-08-14T03:04:56.889Z,82.49
2022-08-14T03:05:33.122Z,82.47
2022-08-14T03:06:09.278Z,82.35
2022-08-14T03:06:57.533Z,82.18
2022-08-14T03:07:34.962Z,82.14
2022-08-14T03:08:15.318Z,82.47
2022-08-14T03:08:50.641Z,82.39
2022-08-14T03:09:22.241Z,82.51
2022-08-14T03:10:27.666Z,82.80
2022-08-14T03:10:48.693Z,82.83
2022-08-14T03:11:21.747Z,83.10
2022-08-14T03:11:55.802Z,83.03
2022-08-14T03:12:31.699Z,83.16
2022-08-14T03:13:04.632Z,83.12
2022-08-14T03:13:39.575Z,83.48
2022-08-14T03:14:12.544Z,83.49
2022-08-14T03:14:50.125Z,83.40
2022-08-14T03:15:21.886Z,83.43
2022-08-14T03:15:55.665Z,83.66
2022-08-14T03:16:35.703Z,83.51
2022-08-14T03:17:11.474Z,83.44
2022-08-14T03:17:56.166Z,83.49
2022-08-14T03:18:30.658Z,83.67
2022-08-14T03:19:05.405Z,83.55
2022-08-14T03:19:38.455Z,83.67
2022-08-14T03:20:11.982Z,83.54
2022-08-14T03:20:43.724Z,83.39
2022-08-14T03:21:20.535Z,83.60
2022-08-14T03:21:53.827Z,83.51
2022-08-14T03:22:27.719Z,83.63
2022-08-14T03:23:02.774Z,83.62
2022-08-14T03:23:38.769Z,83.65
2022-08-14T03:24:16.517Z,83.76
2022-08-14T03:24:54.534Z,83.56
2022-08-14T03:25:26.153Z,83.47
2022-08-14T03:25:57.682Z,83.54
2022-08-14T03:26:30.434Z,83.72
2022-08-14T03:27:04.033Z,83.91
2022-08-14T03:27:48.488Z,83.92
2022-08-14T03:28:33.600Z,83.65
2022-08-14T03:29:06.143Z,83.91
2022-08-14T03:29:45.551Z,84.15
2022-08-14T03:30:23.282Z,83.97
2022-08-14T03:30:57.551Z,84.19
2022-08-14T03:31:32.123Z,84.27
2022-08-14T03:32:05.087Z,84.10
2022-08-14T03:32:37.317Z,84.21
2022-08-14T03:33:13.199Z,84.30
2022-08-14T03:33:44.877Z,84.27
2022-08-14T03:34:24.674Z,84.18
2022-08-14T03:35:15.055Z,84.26
2022-08-14T03:36:05.664Z,84.35
2022-08-14T03:37:51.281Z,84.29
2022-08-14T03:38:58.913Z,84.03
2022-08-14T03:39:15.183Z,83.97
2022-08-14T03:39:22.122Z,84.11
2022-08-14T03:39:55.244Z,84.18
2022-08-14T03:40:26.847Z,83.80
2022-08-14T03:40:58.389Z,83.71
2022-08-14T03:41:33.159Z,83.96
2022-08-14T03:42:06.121Z,83.96
2022-08-14T03:42:50.900Z,83.81
2022-08-14T03:43:22.473Z,84.02
2022-08-14T03:44:01.374Z,84.02
2022-08-14T03:45:20.113Z,83.98
2022-08-14T03:45:48.026Z,83.94
2022-08-14T03:46:52.962Z,83.84
2022-08-14T03:47:15.434Z,84.05
2022-08-14T03:47:55.889Z,84.09
2022-08-14T03:48:31.391Z,84.12
2022-08-14T03:49:13.463Z,84.23
2022-08-14T03:49:49.707Z,84.27
2022-08-14T03:50:27.922Z,84.26
2022-08-14T03:51:03.390Z,84.16
2022-08-14T03:51:36.096Z,84.19
2022-08-14T03:52:37.533Z,84.10
2022-08-14T03:53:01.644Z,84.22
2022-08-14T03:53:37.866Z,84.20
2022-08-14T03:54:10.979Z,84.29
2022-08-14T03:54:52.256Z,84.35
2022-08-14T03:55:24.399Z,84.24
2022-08-14T03:55:58.913Z,84.10
2022-08-14T03:56:30.985Z,84.20
2022-08-14T03:57:03.632Z,84.10
2022-08-14T03:57:37.226Z,84.10
2022-08-14T03:58:10.204Z,84.30
2022-08-14T03:58:48.230Z,84.20
2022-08-14T03:59:21.157Z,84.31
2022-08-14T03:59:52.739Z,84.27
2022-08-14T04:00:42.701Z,84.31
2022-08-14T04:01:22.420Z,84.38
2022-08-14T04:02:01.163Z,84.43
2022-08-14T04:02:46.853Z,84.16
2022-08-14T04:03:24.262Z,84.11
2022-08-14T04:04:06.154Z,84.06
2022-08-14T04:04:39.528Z,84.09
2022-08-14T04:05:16.563Z,84.09
2022-08-14T04:05:49.297Z,83.84
2022-08-14T04:06:21.808Z,83.71
2022-08-14T04:07:00.481Z,83.67
2022-08-14T04:07:36.145Z,83.84
2022-08-14T04:08:23.004Z,83.62
2022-08-14T04:09:00.998Z,83.64
2022-08-14T04:09:32.568Z,83.61
2022-08-14T04:10:04.563Z,83.41
2022-08-14T04:10:36.512Z,83.50
2022-08-14T04:11:10.350Z,83.35
2022-08-14T04:11:42.100Z,83.54
2022-08-14T04:12:13.759Z,83.47
2022-08-14T04:12:51.457Z,83.34
2022-08-14T04:13:23.909Z,83.23
2022-08-14T04:13:55.733Z,83.37
2022-08-14T04:14:29.021Z,83.41
2022-08-14T04:15:01.028Z,83.40
2022-08-14T04:15:55.929Z,83.38
2022-08-14T04:16:25.504Z,83.18
2022-08-14T04:17:04.807Z,83.27
2022-08-14T04:17:43.621Z,83.56
2022-08-14T04:18:18.321Z,83.65
2022-08-14T04:18:54.853Z,83.56
2022-08-14T04:19:28.063Z,83.66
2022-08-14T04:20:07.364Z,83.76
2022-08-14T04:20:54.936Z,83.75
2022-08-14T04:21:29.480Z,83.88
2022-08-14T04:22:04.072Z,83.98
2022-08-14T04:22:36.790Z,83.89
2022-08-14T04:23:23.202Z,83.61
2022-08-14T04:23:58.188Z,83.38
2022-08-14T04:24:30.816Z,83.37
2022-08-14T04:25:10.361Z,83.45
2022-08-14T04:25:42.765Z,83.37
2022-08-14T04:26:38.785Z,83.58
2022-08-14T04:27:11.785Z,83.47
2022-08-14T04:27:48.697Z,83.34
2022-08-14T04:29:05.396Z,83.33
2022-08-14T04:29:28.474Z,83.35
2022-08-14T04:30:06.117Z,83.30
2022-08-14T04:30:39.308Z,83.33
2022-08-14T04:31:15.319Z,83.36
2022-08-14T04:32:58.245Z,83.39
2022-08-14T04:33:02.794Z,83.45
2022-08-14T04:33:30.384Z,83.31
2022-08-14T04:34:05.455Z,83.21
2022-08-14T04:34:42.389Z,83.02
2022-08-14T04:35:23.801Z,83.32
2022-08-14T04:35:57.256Z,83.30
2022-08-14T04:36:28.811Z,83.34
2022-08-14T04:37:24.962Z,83.27
2022-08-14T04:38:36.578Z,83.20
2022-08-14T04:39:25.710Z,82.94
2022-08-14T04:40:15.878Z,82.78
2022-08-14T04:41:05.802Z,82.72
2022-08-14T04:41:55.669Z,82.70
2022-08-14T04:42:46.810Z,82.78
2022-08-14T04:43:39.829Z,82.83
2022-08-14T04:44:26.360Z,82.77
2022-08-14T04:45:02.957Z,82.55
2022-08-14T04:45:40.673Z,82.78
2022-08-14T04:46:56.315Z,82.52
2022-08-14T04:47:25.295Z,82.54
2022-08-14T04:48:38.811Z,82.15
2022-08-14T04:49:07.970Z,82.15
2022-08-14T04:49:46.586Z,81.96
2022-08-14T04:50:37.875Z,81.72
2022-08-14T04:51:21.307Z,81.84
2022-08-14T04:51:56.369Z,81.50
2022-08-14T04:52:28.502Z,81.59
2022-08-14T04:53:00.050Z,81.84
2022-08-14T04:53:35.371Z,81.61
2022-08-14T04:54:07.749Z,81.42
2022-08-14T04:54:40.462Z,81.32
2022-08-14T04:55:12.353Z,81.23
2022-08-14T04:55:49.961Z,81.18
2022-08-14T04:56:33.898Z,81.26
2022-08-14T04:57:06.217Z,81.15
2022-08-14T04:57:39.081Z,80.90
2022-08-14T04:58:21.706Z,80.74
2022-08-14T04:59:10.052Z,80.45
2022-08-14T04:59:42.832Z,80.55
2022-08-14T05:00:16.121Z,80.34
2022-08-14T05:00:52.196Z,80.13
2022-08-14T05:01:26.281Z,80.05
2022-08-14T05:01:58.366Z,80.30
2022-08-14T05:02:30.059Z,79.80
2022-08-14T05:03:07.693Z,79.71
2022-08-14T05:03:39.821Z,79.42
2022-08-14T05:04:16.082Z,79.28
2022-08-14T05:04:57.026Z,79.21
2022-08-14T05:05:32.242Z,79.22
2022-08-14T05:06:07.800Z,78.92
2022-08-14T05:06:59.378Z,78.62
2022-08-14T05:07:46.510Z,78.45
2022-08-14T05:08:31.691Z,78.45
2022-08-14T05:09:14.270Z,78.19
2022-08-14T05:09:47.993Z,78.28
2022-08-14T05:10:24.814Z,78.06
2022-08-14T05:10:58.868Z,77.95
2022-08-14T05:11:33.363Z,77.72
2022-08-14T05:13:14.320Z,77.70
2022-08-14T05:13:24.313Z,77.53
2022-08-14T05:14:33.756Z,77.49
2022-08-14T05:14:53.485Z,77.42
2022-08-14T05:15:29.454Z,77.33
2022-08-14T05:16:06.823Z,77.19
2022-08-14T05:16:40.810Z,77.16
2022-08-14T05:17:13.084Z,77.29
2022-08-14T05:17:53.961Z,77.31
2022-08-14T05:19:17.054Z,77.23
2022-08-14T05:19:28.989Z,77.14
2022-08-14T05:21:04.953Z,77.30
2022-08-14T05:21:54.944Z,76.94
2022-08-14T05:21:57.088Z,76.86
2022-08-14T05:22:30.207Z,76.82
2022-08-14T05:23:02.360Z,76.70
2022-08-14T05:23:39.851Z,76.71
2022-08-14T05:24:16.911Z,76.67
2022-08-14T05:24:51.232Z,76.65
2022-08-14T05:25:23.042Z,76.73
2022-08-14T05:26:03.257Z,76.64
2022-08-14T05:26:34.817Z,76.55
2022-08-14T05:27:07.049Z,76.50
2022-08-14T05:27:39.573Z,76.77
2022-08-14T05:28:18.835Z,76.59
2022-08-14T05:28:52.160Z,76.54
2022-08-14T05:29:23.715Z,76.57
2022-08-14T05:29:56.676Z,76.55
2022-08-14T05:30:28.793Z,76.38
2022-08-14T05:31:04.341Z,76.33
2022-08-14T05:31:40.544Z,76.21
2022-08-14T05:32:13.432Z,76.21
2022-08-14T05:32:46.917Z,76.07
2022-08-14T05:33:19.801Z,75.95
2022-08-14T05:33:54.932Z,75.96
2022-08-14T05:34:31.824Z,75.69
2022-08-14T05:35:04.269Z,75.87
2022-08-14T05:35:37.385Z,75.78
2022-08-14T05:36:16.776Z,75.53
2022-08-14T05:36:50.417Z,75.65
2022-08-14T05:37:30.936Z,75.42
2022-08-14T05:38:22.264Z,75.43
2022-08-14T05:39:03.752Z,75.28
2022-08-14T05:39:35.355Z,75.31
2022-08-14T05:40:10.374Z,75.48
2022-08-14T05:40:44.570Z,75.62
2022-08-14T05:41:19.060Z,75.39
2022-08-14T05:41:52.585Z,75.24
2022-08-14T05:42:27.115Z,75.30
2022-08-14T05:43:03.330Z,75.31
2022-08-14T05:43:41.905Z,75.41
2022-08-14T05:44:15.713Z,75.24
2022-08-14T05:44:47.351Z,75.15
2022-08-14T05:45:21.197Z,75.16
2022-08-14T05:45:53.633Z,75.10
2022-08-14T05:46:26.586Z,74.96
2022-08-14T05:46:59.847Z,74.99
2022-08-14T05:47:39.012Z,75.03
2022-08-14T05:48:32.706Z,75.42
2022-08-14T05:49:05.563Z,75.26
2022-08-14T05:49:40.651Z,75.39
2022-08-14T05:50:17.314Z,75.40
2022-08-14T05:50:54.732Z,75.25
2022-08-14T05:51:28.481Z,75.06
2022-08-14T05:52:02.711Z,75.14
2022-08-14T05:52:39.128Z,75.15
2022-08-14T05:53:11.278Z,75.24
2022-08-14T05:53:43.081Z,74.99
2022-08-14T05:54:26.689Z,74.96
2022-08-14T05:54:58.933Z,74.93
2022-08-14T05:55:30.881Z,74.98
2022-08-14T05:56:03.572Z,75.04
2022-08-14T05:56:36.867Z,74.94
2022-08-14T05:57:09.476Z,74.87
2022-08-14T05:57:59.436Z,75.37
2022-08-14T05:58:33.928Z,75.07
2022-08-14T05:59:12.712Z,75.07
2022-08-14T05:59:48.321Z,75.00
2022-08-14T06:00:29.150Z,75.08
2022-08-14T06:01:02.392Z,74.84
2022-08-14T06:01:34.282Z,74.71
2022-08-14T06:02:10.956Z,74.69
2022-08-14T06:02:43.247Z,74.68
2022-08-14T06:03:19.033Z,74.49
2022-08-14T06:03:51.120Z,74.44
2022-08-14T06:04:26.275Z,74.21
2022-08-14T06:05:02.598Z,73.93
2022-08-14T06:05:35.106Z,73.75
2022-08-14T06:06:10.631Z,73.56
2022-08-14T06:06:43.346Z,73.60
2022-08-14T06:07:15.765Z,73.51
2022-08-14T06:07:47.338Z,73.33
2022-08-14T06:08:35.705Z,73.40
2022-08-14T06:09:10.493Z,73.01
2022-08-14T06:09:42.217Z,73.06
2022-08-14T06:10:13.927Z,72.95
2022-08-14T06:10:52.959Z,73.02
2022-08-14T06:11:30.846Z,72.77
2022-08-14T06:12:03.291Z,72.59
2022-08-14T06:12:55.484Z,72.30
2022-08-14T06:13:31.719Z,72.46
2022-08-14T06:14:21.312Z,72.55
2022-08-14T06:14:55.705Z,72.45
2022-08-14T06:15:30.588Z,72.38
2022-08-14T06:16:02.767Z,72.41
2022-08-14T06:16:34.327Z,72.24
2022-08-14T06:17:08.021Z,71.87
2022-08-14T06:17:58.906Z,71.68
2022-08-14T06:18:32.378Z,71.85
2022-08-14T06:19:04.086Z,71.80
2022-08-14T06:19:36.665Z,71.64
2022-08-14T06:20:10.366Z,71.23
2022-08-14T06:20:42.388Z,71.17
2022-08-14T06:21:15.917Z,70.89
2022-08-14T06:21:52.092Z,71.07
2022-08-14T06:22:29.786Z,70.94
2022-08-14T06:23:01.609Z,70.89
2022-08-14T06:23:33.798Z,70.89
2022-08-14T06:24:05.557Z,70.43
2022-08-14T06:24:43.969Z,70.58
2022-08-14T06:25:16.237Z,70.67
2022-08-14T06:25:52.637Z,70.32
2022-08-14T06:26:30.181Z,70.54
2022-08-14T06:27:06.060Z,69.99
2022-08-14T06:27:44.117Z,70.02
2022-08-14T06:28:27.279Z,69.81
2022-08-14T06:28:59.924Z,69.95
2022-08-14T06:29:34.671Z,70.04
2022-08-14T06:30:09.455Z,70.77
2022-08-14T06:30:47.243Z,70.85
2022-08-14T06:31:19.815Z,70.41
2022-08-14T06:31:54.786Z,70.48
2022-08-14T06:32:38.175Z,70.42
2022-08-14T06:33:10.894Z,70.31
2022-08-14T06:35:04.644Z,70.40
2022-08-14T06:35:09.492Z,70.61
2022-08-14T06:35:26.380Z,70.70
2022-08-14T06:35:58.322Z,70.52
2022-08-14T06:36:30.503Z,70.52
2022-08-14T06:37:02.048Z,70.57
2022-08-14T06:38:00.820Z,69.80
2022-08-14T06:38:36.117Z,69.62
2022-08-14T06:39:10.299Z,69.61
2022-08-14T06:39:42.392Z,69.80
2022-08-14T06:40:26.909Z,69.87
2022-08-14T06:40:59.671Z,69.63
2022-08-14T06:41:56.581Z,69.55
2022-08-14T06:42:32.377Z,69.45
2022-08-14T06:43:07.473Z,69.41
2022-08-14T06:43:39.026Z,69.27
2022-08-14T06:44:16.994Z,68.77
2022-08-14T06:44:48.546Z,69.27
2022-08-14T06:45:26.106Z,69.02
2022-08-14T06:45:58.071Z,68.73
2022-08-14T06:46:34.009Z,68.50
2022-08-14T06:47:06.193Z,68.98
2022-08-14T06:47:43.882Z,68.82
2022-08-14T06:48:21.557Z,68.71
2022-08-14T06:48:53.250Z,68.41
2022-08-14T06:49:27.296Z,68.35
2022-08-14T06:50:03.961Z,68.46
2022-08-14T06:50:36.611Z,68.00
2022-08-14T06:51:08.265Z,67.63
2022-08-14T06:51:46.823Z,67.81
2022-08-14T06:52:25.057Z,67.56
2022-08-14T06:53:16.011Z,67.37
2022-08-14T06:53:49.796Z,67.07
2022-08-14T06:54:23.222Z,67.31
2022-08-14T06:55:03.569Z,67.07
2022-08-14T06:55:36.986Z,66.94
2022-08-14T06:56:19.855Z,66.92
2022-08-14T06:56:54.503Z,66.81
2022-08-14T06:57:48.669Z,66.91
2022-08-14T06:58:28.482Z,66.51
2022-08-14T06:59:01.276Z,66.33
2022-08-14T06:59:52.441Z,66.11
2022-08-14T07:00:27.445Z,66.02
2022-08-14T07:01:31.106Z,66.03
2022-08-14T07:02:21.662Z,65.72
2022-08-14T07:03:13.785Z,65.62
2022-08-14T07:04:07.200Z,65.48
2022-08-14T07:05:11.167Z,65.54
2022-08-14T07:05:55.954Z,65.07
2022-08-14T07:06:46.345Z,64.96
2022-08-14T07:07:18.697Z,64.53
2022-08-14T07:07:51.319Z,64.30
2022-08-14T07:08:29.799Z,64.33
2022-08-14T07:09:05.044Z,63.92
2022-08-14T07:09:43.786Z,63.66
2022-08-14T07:10:25.006Z,63.54
2022-08-14T07:11:00.118Z,63.15
2022-08-14T07:11:33.029Z,63.05
2022-08-14T07:12:06.669Z,62.86
2022-08-14T07:13:02.164Z,62.86
2022-08-14T07:13:31.229Z,62.72
2022-08-14T07:14:02.839Z,61.89
2022-08-14T07:14:35.312Z,61.93
2022-08-14T07:15:07.511Z,62.06
2022-08-14T07:15:40.032Z,62.06
2022-08-14T07:16:14.168Z,61.96
2022-08-14T07:16:50.722Z,61.92
2022-08-14T07:17:22.289Z,62.15
2022-08-14T07:17:54.624Z,62.24
2022-08-14T07:18:30.955Z,62.15
2022-08-14T07:19:02.838Z,61.74
2022-08-14T07:19:34.405Z,61.39
2022-08-14T07:20:08.999Z,61.03
2022-08-14T07:20:42.221Z,61.10
2022-08-14T07:21:16.124Z,61.34
2022-08-14T07:21:48.244Z,61.63
2022-08-14T07:22:20.576Z,61.28
2022-08-14T07:22:57.135Z,60.97
2022-08-14T07:23:31.046Z,61.11
2022-08-14T07:24:03.981Z,60.45
2022-08-14T07:24:36.245Z,60.47
2022-08-14T07:25:08.110Z,60.44
2022-08-14T07:25:42.223Z,60.02
2022-08-14T07:26:15.978Z,60.05
2022-08-14T07:26:47.542Z,60.19
2022-08-14T07:27:19.079Z,59.98
2022-08-14T07:27:54.978Z,59.58
2022-08-14T07:28:33.267Z,59.11
2022-08-14T07:29:04.827Z,59.44
2022-08-14T07:29:38.441Z,58.87
2022-08-14T07:30:34.585Z,59.03
2022-08-14T07:31:06.494Z,59.43
2022-08-14T07:31:38.146Z,58.88
2022-08-14T07:32:11.257Z,59.10
2022-08-14T07:32:51.896Z,59.04
2022-08-14T07:33:30.176Z,58.84
2022-08-14T07:34:01.941Z,58.53
2022-08-14T07:34:40.749Z,58.49
2022-08-14T07:35:13.006Z,57.86
2022-08-14T07:35:58.455Z,57.87
2022-08-14T07:36:31.325Z,57.35
2022-08-14T07:37:03.134Z,58.00
2022-08-14T07:37:34.854Z,57.17
2022-08-14T07:38:07.803Z,57.28
2022-08-14T07:38:43.493Z,56.48
2022-08-14T07:39:27.804Z,55.87
2022-08-14T07:39:59.676Z,55.12
2022-08-14T07:40:31.605Z,55.15
2022-08-14T07:41:14.825Z,55.42
2022-08-14T07:41:48.246Z,55.69
2022-08-14T07:42:22.718Z,55.01
2022-08-14T07:42:54.581Z,54.94
2022-08-14T07:43:26.300Z,54.85
2022-08-14T07:43:57.915Z,55.01
2022-08-14T07:44:35.549Z,55.39
2022-08-14T07:45:08.145Z,55.56
2022-08-14T07:45:41.339Z,55.30
2022-08-14T07:46:14.769Z,55.29
2022-08-14T07:46:53.044Z,55.51
2022-08-14T07:47:24.731Z,55.07
2022-08-14T07:47:57.938Z,54.90
2022-08-14T07:48:29.829Z,54.95
2022-08-14T07:49:01.493Z,54.99
2022-08-14T07:49:34.230Z,54.31
2022-08-14T07:50:13.913Z,53.17
2022-08-14T07:50:50.773Z,53.75
2022-08-14T07:51:23.045Z,53.19
2022-08-14T07:51:56.727Z,53.14
2022-08-14T07:52:31.990Z,53.51
2022-08-14T07:53:03.809Z,53.52
2022-08-14T07:53:39.243Z,53.37
2022-08-14T07:54:12.492Z,53.06
2022-08-14T07:54:48.129Z,52.70
2022-08-14T07:55:21.058Z,52.51
2022-08-14T07:56:08.958Z,52.74
2022-08-14T07:56:48.913Z,52.00
2022-08-14T07:57:24.830Z,52.16
2022-08-14T07:57:56.781Z,52.51
2022-08-14T07:58:33.894Z,52.89
2022-08-14T07:59:06.637Z,51.99
2022-08-14T07:59:43.576Z,51.78
2022-08-14T08:00:30.905Z,51.34
2022-08-14T08:01:03.517Z,51.51
2022-08-14T08:01:35.321Z,51.55
2022-08-14T08:02:19.458Z,51.52
2022-08-14T08:02:55.906Z,51.83
2022-08-14T08:03:35.018Z,51.53
2022-08-14T08:04:16.427Z,51.10
2022-08-14T08:04:55.109Z,51.05
2022-08-14T08:05:31.303Z,50.72
2022-08-14T08:06:03.237Z,50.63
2022-08-14T08:06:42.297Z,51.06
2022-08-14T08:07:13.891Z,50.45
2022-08-14T08:07:47.589Z,51.19
2022-08-14T08:08:26.886Z,51.01
2022-08-14T08:09:01.207Z,50.30
2022-08-14T08:09:36.941Z,49.77
2022-08-14T08:10:46.407Z,49.71